Time;durP1;ratioP1;P1;durP2;ratioP2;P2;SDS_P1;SDS_P2;PMS_P1;PMS_P2;Temp;Humidity;BMP_temperature;BMP_pressure;BME280_temperature;BME280_humidity;BME280_pressure;Samples;Min_cycle;Max_cycle;Signal;HPM_P1;HPM_P2
2022/10/14 00:01:40;;;;;;;6.25;5.50;;;16.00;99.90;;;;;;931383;150;27307;-82
2022/10/14 00:04:07;;;;;;;6.90;6.20;;;15.90;99.90;;;;;;930999;152;27348;-81
2022/10/14 00:06:33;;;;;;;8.23;5.12;;;15.90;99.90;;;;;;931349;149;27593;-82
2022/10/14 00:09:00;;;;;;;6.53;5.95;;;15.90;99.90;;;;;;932118;152;27334;-81
2022/10/14 00:11:26;;;;;;;7.15;5.95;;;15.90;99.90;;;;;;930611;150;27367;-81
2022/10/14 00:13:53;;;;;;;7.58;5.75;;;15.90;99.90;;;;;;932351;152;27355;-81
2022/10/14 00:16:20;;;;;;;5.83;5.33;;;15.90;99.90;;;;;;931349;149;27307;-81
2022/10/14 00:18:46;;;;;;;8.03;5.67;;;15.90;99.90;;;;;;930470;149;27283;-81
2022/10/14 00:21:13;;;;;;;6.03;5.40;;;15.90;99.90;;;;;;931244;151;27312;-80
2022/10/14 00:23:39;;;;;;;6.05;5.45;;;15.90;99.90;;;;;;931715;151;27428;-82
2022/10/14 00:26:06;;;;;;;6.17;5.58;;;15.90;99.90;;;;;;930691;150;27373;-81
2022/10/14 00:28:33;;;;;;;6.37;5.75;;;15.90;99.90;;;;;;935336;148;27371;-82
2022/10/14 00:30:59;;;;;;;6.22;5.62;;;15.90;99.90;;;;;;936329;151;27397;-82
2022/10/14 00:33:26;;;;;;;8.40;6.00;;;15.90;99.90;;;;;;934836;148;27314;-81
2022/10/14 00:35:52;;;;;;;6.53;5.92;;;15.90;99.90;;;;;;935526;148;27439;-81
2022/10/14 00:38:19;;;;;;;6.45;5.67;;;15.90;99.90;;;;;;934585;148;27448;-81
2022/10/14 00:40:46;;;;;;;6.85;6.17;;;15.90;99.90;;;;;;936076;151;27255;-81
2022/10/14 00:43:13;;;;;;;6.12;5.53;;;15.90;99.90;;;;;;937165;151;27437;-82
2022/10/14 00:45:39;;;;;;;6.95;5.50;;;15.90;99.90;;;;;;938080;149;27385;-81
2022/10/14 00:48:05;;;;;;;6.53;5.53;;;15.90;99.90;;;;;;936183;151;27531;-80
2022/10/14 00:50:32;;;;;;;6.22;5.40;;;15.90;99.90;;;;;;938415;151;27354;-82
2022/10/14 00:52:58;;;;;;;5.80;5.30;;;15.90;99.90;;;;;;936055;151;27306;-82
2022/10/14 00:55:25;;;;;;;6.42;5.85;;;15.90;99.90;;;;;;935811;151;27305;-82
2022/10/14 00:57:52;;;;;;;5.58;5.08;;;15.90;99.90;;;;;;935034;151;27308;-81
2022/10/14 01:00:18;;;;;;;5.85;5.30;;;15.90;99.90;;;;;;936524;148;28129;-80
2022/10/14 01:02:46;;;;;;;6.00;5.40;;;15.90;99.90;;;;;;936531;148;27451;-82
2022/10/14 01:05:11;;;;;;;7.37;5.90;;;15.90;99.90;;;;;;935053;148;27352;-82
2022/10/14 01:08:03;;;;;;;6.50;5.90;;;15.90;99.90;;;;;;936044;148;27310;-81
2022/10/14 01:10:32;;;;;;;5.53;5.03;;;15.90;99.90;;;;;;934671;151;27375;-82
2022/10/14 01:13:07;;;;;;;6.80;5.55;;;15.90;99.90;;;;;;934756;149;27323;-81
2022/10/14 01:15:55;;;;;;;6.13;5.43;;;15.90;99.90;;;;;;934447;151;27337;-82
2022/10/14 01:18:36;;;;;;;5.90;5.30;;;15.90;99.90;;;;;;935783;151;27449;-82
2022/10/14 01:21:11;;;;;;;5.92;5.33;;;15.90;99.90;;;;;;935892;148;27347;-82
2022/10/14 01:24:09;;;;;;;5.87;5.12;;;15.90;99.90;;;;;;935511;151;27327;-81
2022/10/14 01:26:48;;;;;;;6.10;5.50;;;15.90;99.90;;;;;;936389;151;27411;-80
2022/10/14 01:29:20;;;;;;;5.80;5.30;;;15.90;99.90;;;;;;934519;150;27546;-81
2022/10/14 01:31:49;;;;;;;6.72;5.50;;;15.90;99.90;;;;;;933981;148;27454;-81
2022/10/14 01:34:16;;;;;;;5.72;5.22;;;15.90;99.90;;;;;;934140;149;27324;-81
2022/10/14 01:36:42;;;;;;;6.28;5.67;;;15.90;99.90;;;;;;935699;151;27428;-81
2022/10/14 01:39:17;;;;;;;6.58;5.97;;;15.90;99.90;;;;;;935033;148;27321;-80
2022/10/14 01:41:44;;;;;;;5.97;5.30;;;15.90;99.90;;;;;;936032;151;27454;-81
2022/10/14 01:44:11;;;;;;;7.55;5.58;;;15.90;99.90;;;;;;928585;151;27352;-81
2022/10/14 01:46:37;;;;;;;6.12;5.40;;;15.90;99.90;;;;;;934863;148;27345;-81
2022/10/14 01:49:07;;;;;;;6.17;5.67;;;15.90;99.90;;;;;;935190;151;27393;-80
2022/10/14 01:51:33;;;;;;;6.70;5.50;;;16.00;99.90;;;;;;936927;151;27327;-79
2022/10/14 01:54:00;;;;;;;6.00;5.40;;;16.00;99.90;;;;;;933419;151;27354;-80
2022/10/14 01:56:26;;;;;;;6.95;5.65;;;16.00;99.90;;;;;;935873;148;27343;-80
2022/10/14 01:58:53;;;;;;;5.75;5.25;;;16.00;99.90;;;;;;935304;148;27293;-82
2022/10/14 02:01:20;;;;;;;7.03;6.33;;;16.00;99.90;;;;;;935465;148;27323;-80
2022/10/14 02:03:47;;;;;;;6.35;5.22;;;16.00;99.90;;;;;;936830;149;27290;-81
2022/10/14 02:06:20;;;;;;;6.87;5.20;;;16.00;99.90;;;;;;936731;148;27364;-81
2022/10/14 02:08:55;;;;;;;6.53;5.92;;;16.00;99.90;;;;;;934634;149;27332;-79
2022/10/14 02:11:22;;;;;;;5.78;5.28;;;16.00;99.90;;;;;;934710;151;27447;-78
2022/10/14 02:13:57;;;;;;;7.60;6.10;;;16.00;99.90;;;;;;936615;151;27796;-78
2022/10/14 02:16:48;;;;;;;7.33;5.77;;;15.90;99.90;;;;;;935764;151;27369;-79
2022/10/14 02:19:21;;;;;;;6.17;5.55;;;15.90;99.90;;;;;;937493;148;27366;-79
2022/10/14 02:22:12;;;;;;;7.45;6.65;;;15.90;99.90;;;;;;936990;148;27395;-80
2022/10/14 02:24:44;;;;;;;8.00;5.83;;;15.90;99.90;;;;;;912684;155;27510;-78
2022/10/14 02:27:11;;;;;;;6.55;5.95;;;15.90;99.90;;;;;;914742;155;27386;-80
2022/10/14 02:29:37;;;;;;;6.78;6.17;;;15.90;99.90;;;;;;919938;151;27390;-80
2022/10/14 02:32:04;;;;;;;7.83;6.53;;;15.90;99.90;;;;;;937162;149;27312;-81
2022/10/14 02:34:31;;;;;;;6.70;5.95;;;15.90;99.90;;;;;;938354;148;27409;-80
2022/10/14 02:36:57;;;;;;;6.35;5.67;;;15.90;99.90;;;;;;937209;148;27760;-80
2022/10/14 02:39:24;;;;;;;7.78;6.53;;;15.90;99.90;;;;;;938326;148;27367;-80
2022/10/14 02:41:50;;;;;;;7.25;6.25;;;15.90;99.90;;;;;;936167;151;27446;-80
2022/10/14 02:44:17;;;;;;;6.58;5.97;;;15.90;99.90;;;;;;937375;151;27350;-80
2022/10/14 02:46:43;;;;;;;7.42;6.72;;;15.90;99.90;;;;;;937504;149;27367;-81
2022/10/14 02:49:10;;;;;;;7.35;6.60;;;15.90;99.90;;;;;;938046;151;27338;-81
2022/10/14 02:51:37;;;;;;;8.05;6.15;;;16.00;99.90;;;;;;939335;148;27354;-80
2022/10/14 02:54:03;;;;;;;7.17;6.45;;;15.90;99.90;;;;;;936205;151;27391;-80
2022/10/14 02:56:30;;;;;;;7.62;6.85;;;16.00;99.90;;;;;;937318;150;27370;-80
2022/10/14 02:58:56;;;;;;;6.97;6.35;;;16.00;99.90;;;;;;936567;148;27331;-80
2022/10/14 03:01:23;;;;;;;8.58;7.10;;;15.90;99.90;;;;;;936208;148;27279;-81
2022/10/14 03:03:50;;;;;;;7.20;6.50;;;16.00;99.90;;;;;;937673;149;27367;-80
2022/10/14 03:06:16;;;;;;;6.60;5.75;;;16.00;99.90;;;;;;936251;151;27373;-80
2022/10/14 03:08:43;;;;;;;8.80;6.47;;;16.00;99.90;;;;;;938139;151;28438;-80
2022/10/14 03:11:09;;;;;;;8.38;6.97;;;16.00;99.90;;;;;;936725;148;27386;-81
2022/10/14 03:13:36;;;;;;;6.92;6.22;;;16.00;99.90;;;;;;939741;148;27280;-80
2022/10/14 03:16:03;;;;;;;7.60;6.55;;;16.00;99.90;;;;;;936821;150;27358;-81
2022/10/14 03:18:30;;;;;;;7.12;6.28;;;16.00;99.90;;;;;;937196;151;27345;-80
2022/10/14 03:20:56;;;;;;;7.00;6.25;;;15.90;99.90;;;;;;935439;151;28337;-80
2022/10/14 03:23:22;;;;;;;7.12;6.42;;;15.90;99.90;;;;;;937854;151;27396;-81
2022/10/14 03:25:49;;;;;;;7.05;6.45;;;15.90;99.90;;;;;;937411;148;27390;-80
2022/10/14 03:28:15;;;;;;;7.20;6.50;;;15.90;99.90;;;;;;937303;150;27441;-80
2022/10/14 03:30:42;;;;;;;7.47;6.78;;;15.90;99.90;;;;;;931574;149;27423;-81
2022/10/14 03:33:09;;;;;;;6.67;6.03;;;15.90;99.90;;;;;;930037;149;27461;-81
2022/10/14 03:35:35;;;;;;;7.80;7.08;;;15.90;99.90;;;;;;931979;150;27340;-80
2022/10/14 03:38:02;;;;;;;7.47;6.75;;;15.90;99.90;;;;;;931177;152;27300;-80
2022/10/14 03:40:28;;;;;;;7.33;6.62;;;15.90;99.90;;;;;;931365;149;27272;-80
2022/10/14 03:42:59;;;;;;;8.10;6.37;;;15.90;99.90;;;;;;932535;150;27331;-80
2022/10/14 03:45:24;;;;;;;8.10;6.92;;;15.90;99.90;;;;;;930932;152;27477;-80
2022/10/14 03:47:51;;;;;;;7.60;6.90;;;15.90;99.90;;;;;;931586;149;27443;-80
2022/10/14 03:50:18;;;;;;;7.35;6.50;;;15.90;99.90;;;;;;930117;149;27325;-81
2022/10/14 03:52:44;;;;;;;11.55;7.10;;;15.90;99.90;;;;;;930182;152;27378;-81
2022/10/14 03:55:11;;;;;;;7.55;6.75;;;15.90;99.90;;;;;;931646;152;27356;-81
2022/10/14 03:57:37;;;;;;;7.75;6.55;;;15.90;99.90;;;;;;933863;149;27379;-81
2022/10/14 04:00:04;;;;;;;7.33;6.60;;;15.90;99.90;;;;;;932518;149;27422;-81
2022/10/14 04:02:31;;;;;;;6.95;6.30;;;15.90;99.90;;;;;;930947;150;27420;-80
2022/10/14 04:04:57;;;;;;;8.28;6.90;;;15.90;99.90;;;;;;930940;150;27336;-80
2022/10/14 04:07:24;;;;;;;7.42;6.60;;;15.90;99.90;;;;;;932125;149;27417;-80
2022/10/14 04:09:50;;;;;;;7.37;6.60;;;15.90;99.90;;;;;;929234;152;27362;-81
2022/10/14 04:12:17;;;;;;;7.55;6.85;;;15.90;99.90;;;;;;930705;152;27335;-80
2022/10/14 04:14:44;;;;;;;6.58;5.95;;;16.00;99.90;;;;;;931412;149;27350;-80
2022/10/14 04:17:10;;;;;;;7.50;6.47;;;15.90;99.90;;;;;;930515;149;27445;-80
2022/10/14 04:19:37;;;;;;;7.62;6.50;;;16.00;99.90;;;;;;930406;151;27405;-81
2022/10/14 04:22:03;;;;;;;7.70;7.00;;;15.90;99.90;;;;;;931528;149;27339;-80
2022/10/14 04:24:30;;;;;;;9.20;7.40;;;15.90;99.90;;;;;;929642;149;27446;-80
2022/10/14 04:26:56;;;;;;;7.50;6.75;;;16.00;99.90;;;;;;932092;149;27414;-80
2022/10/14 04:29:23;;;;;;;8.15;6.58;;;16.00;99.90;;;;;;930088;150;27321;-81
2022/10/14 04:31:50;;;;;;;6.78;6.17;;;16.00;99.90;;;;;;932761;149;27368;-81
2022/10/14 04:34:16;;;;;;;9.80;7.05;;;16.00;99.90;;;;;;930732;149;27320;-81
2022/10/14 04:36:43;;;;;;;7.80;7.10;;;16.00;99.90;;;;;;931125;152;27370;-80
2022/10/14 04:39:09;;;;;;;7.22;6.53;;;16.00;99.90;;;;;;930404;149;27380;-81
2022/10/14 04:41:36;;;;;;;8.03;7.22;;;16.00;99.90;;;;;;931894;149;27321;-81
2022/10/14 04:44:03;;;;;;;7.70;6.87;;;16.00;99.90;;;;;;929392;151;27402;-81
2022/10/14 04:46:30;;;;;;;7.10;6.50;;;16.00;99.90;;;;;;932810;149;27433;-78
2022/10/14 04:48:56;;;;;;;7.85;7.05;;;16.00;99.90;;;;;;931395;152;27408;-79
2022/10/14 04:51:22;;;;;;;7.92;7.12;;;16.00;99.90;;;;;;928301;149;27448;-78
2022/10/14 04:53:49;;;;;;;7.85;7.10;;;15.90;99.90;;;;;;930852;152;27332;-78
2022/10/14 04:56:16;;;;;;;7.30;6.70;;;15.90;99.90;;;;;;931445;149;27299;-78
2022/10/14 04:58:42;;;;;;;7.62;6.80;;;15.90;99.90;;;;;;929312;152;27459;-79
2022/10/14 05:01:09;;;;;;;7.70;7.10;;;15.90;99.90;;;;;;929512;151;27352;-78
2022/10/14 05:03:35;;;;;;;8.08;6.87;;;15.90;99.90;;;;;;930237;150;27297;-78
2022/10/14 05:06:02;;;;;;;8.03;7.33;;;15.90;99.90;;;;;;932316;149;27340;-78
2022/10/14 05:08:28;;;;;;;7.83;7.03;;;15.90;99.90;;;;;;930851;149;27463;-78
2022/10/14 05:10:55;;;;;;;8.35;7.20;;;16.00;99.90;;;;;;930823;152;27914;-78
2022/10/14 05:13:22;;;;;;;7.70;7.00;;;15.90;99.90;;;;;;930077;152;27461;-79
2022/10/14 05:15:48;;;;;;;11.28;7.40;;;15.90;99.90;;;;;;931124;152;27451;-78
2022/10/14 05:18:15;;;;;;;9.13;7.28;;;16.00;99.90;;;;;;932012;152;27394;-78
2022/10/14 05:20:41;;;;;;;8.70;6.55;;;16.00;99.90;;;;;;930515;150;27790;-78
2022/10/14 05:23:08;;;;;;;8.38;7.50;;;16.00;99.90;;;;;;931716;152;27327;-79
2022/10/14 05:25:35;;;;;;;8.10;7.30;;;16.00;99.90;;;;;;932187;152;27360;-78
2022/10/14 05:28:01;;;;;;;7.67;6.97;;;15.90;99.90;;;;;;932143;149;27346;-78
2022/10/14 05:30:28;;;;;;;10.70;7.35;;;16.00;99.90;;;;;;932983;150;27285;-78
2022/10/14 05:32:54;;;;;;;8.43;7.62;;;16.00;99.90;;;;;;934702;150;27330;-79
2022/10/14 05:35:21;;;;;;;9.40;6.85;;;16.00;99.90;;;;;;936227;148;27391;-78
2022/10/14 05:37:48;;;;;;;7.65;6.95;;;16.00;99.90;;;;;;935502;148;27457;-79
2022/10/14 05:40:14;;;;;;;7.75;7.03;;;16.00;99.90;;;;;;936890;151;27346;-78
2022/10/14 05:42:41;;;;;;;7.95;6.72;;;16.00;99.90;;;;;;936196;148;27313;-78
2022/10/14 05:45:07;;;;;;;7.80;6.63;;;16.00;99.90;;;;;;937999;148;27251;-79
2022/10/14 05:47:34;;;;;;;7.55;6.85;;;16.00;99.90;;;;;;935899;149;27335;-79
2022/10/14 05:50:02;;;;;;;8.28;6.95;;;16.00;99.90;;;;;;935247;151;27727;-79
2022/10/14 05:52:28;;;;;;;9.15;7.05;;;16.00;99.90;;;;;;937461;148;27347;-81
2022/10/14 05:54:54;;;;;;;8.08;6.90;;;16.00;99.90;;;;;;934224;151;27560;-81
2022/10/14 05:57:20;;;;;;;8.13;6.92;;;16.00;99.90;;;;;;934990;151;27820;-79
2022/10/14 05:59:47;;;;;;;7.78;6.95;;;16.00;99.90;;;;;;935758;151;27460;-78
2022/10/14 06:02:13;;;;;;;8.83;6.87;;;16.00;99.90;;;;;;937709;148;27268;-79
2022/10/14 06:04:41;;;;;;;8.38;7.58;;;16.00;99.90;;;;;;936167;148;27358;-79
2022/10/14 06:07:09;;;;;;;7.78;7.05;;;16.00;99.90;;;;;;937347;148;27355;-78
2022/10/14 06:09:33;;;;;;;8.00;7.20;;;16.00;99.90;;;;;;934825;151;27456;-78
2022/10/14 06:12:00;;;;;;;10.53;7.20;;;16.00;99.90;;;;;;936414;148;27346;-78
2022/10/14 06:14:26;;;;;;;9.63;7.22;;;16.00;99.90;;;;;;933677;150;27312;-78
2022/10/14 06:16:53;;;;;;;8.40;6.42;;;16.00;99.90;;;;;;934807;149;27466;-79
2022/10/14 06:19:20;;;;;;;8.18;7.17;;;16.00;99.90;;;;;;935654;148;27419;-78
2022/10/14 06:21:46;;;;;;;7.53;6.75;;;16.00;99.90;;;;;;934261;151;27395;-78
2022/10/14 06:24:13;;;;;;;6.97;6.37;;;16.00;99.90;;;;;;936149;151;27327;-79
2022/10/14 06:26:39;;;;;;;7.62;6.83;;;16.00;99.90;;;;;;936192;148;27331;-79
2022/10/14 06:29:06;;;;;;;7.42;6.45;;;16.10;99.90;;;;;;936625;149;27342;-78
2022/10/14 06:31:33;;;;;;;7.78;7.08;;;16.10;99.90;;;;;;936967;149;27467;-78
2022/10/14 06:33:59;;;;;;;7.55;6.35;;;16.10;99.90;;;;;;935311;148;27451;-78
2022/10/14 06:36:26;;;;;;;9.60;7.30;;;16.10;99.90;;;;;;935483;148;27339;-78
2022/10/14 06:38:52;;;;;;;7.28;6.65;;;16.10;99.90;;;;;;934158;151;27304;-79
2022/10/14 06:41:19;;;;;;;7.17;6.47;;;16.20;99.90;;;;;;934297;148;27272;-79
2022/10/14 06:43:45;;;;;;;7.75;6.62;;;16.20;99.90;;;;;;935791;151;27404;-78
2022/10/14 06:46:12;;;;;;;13.03;7.60;;;16.20;99.90;;;;;;934680;151;27371;-79
2022/10/14 06:48:39;;;;;;;6.58;5.75;;;16.20;99.90;;;;;;935890;148;27390;-78
2022/10/14 06:51:05;;;;;;;6.97;6.37;;;16.30;99.90;;;;;;934138;149;27254;-79
2022/10/14 06:53:32;;;;;;;6.85;6.15;;;16.30;99.90;;;;;;936148;148;27408;-79
2022/10/14 06:55:58;;;;;;;9.58;6.45;;;16.30;99.90;;;;;;934603;151;27417;-79
2022/10/14 06:58:25;;;;;;;8.10;6.65;;;16.40;99.90;;;;;;933365;151;27374;-79
2022/10/14 07:00:52;;;;;;;7.55;6.42;;;16.40;99.90;;;;;;936451;151;27354;-79
2022/10/14 07:03:18;;;;;;;6.58;5.97;;;16.50;99.90;;;;;;936000;148;28252;-79
2022/10/14 07:05:45;;;;;;;6.80;6.08;;;16.50;99.90;;;;;;936241;148;27396;-79
2022/10/14 07:08:11;;;;;;;7.35;5.95;;;16.60;99.90;;;;;;935294;151;27443;-79
2022/10/14 07:10:38;;;;;;;6.47;5.87;;;16.70;99.90;;;;;;935978;151;27437;-79
2022/10/14 07:13:05;;;;;;;6.85;6.12;;;16.70;99.90;;;;;;935506;151;27375;-79
2022/10/14 07:15:31;;;;;;;7.05;6.40;;;16.80;99.90;;;;;;935720;150;27271;-79
2022/10/14 07:17:58;;;;;;;6.83;6.22;;;16.80;99.90;;;;;;935374;148;27311;-79
2022/10/14 07:20:24;;;;;;;6.78;6.08;;;16.90;99.90;;;;;;935352;149;27324;-79
2022/10/14 07:22:51;;;;;;;7.30;6.05;;;16.90;99.90;;;;;;935176;151;27368;-79
2022/10/14 07:25:17;;;;;;;6.67;5.53;;;17.00;99.90;;;;;;934818;151;27445;-79
2022/10/14 07:27:44;;;;;;;5.87;5.37;;;17.00;99.90;;;;;;934554;151;27304;-79
2022/10/14 07:30:12;;;;;;;7.25;5.75;;;17.00;99.90;;;;;;935395;151;27455;-79
2022/10/14 07:32:38;;;;;;;5.75;5.25;;;17.10;99.90;;;;;;935917;148;27466;-79
2022/10/14 07:35:05;;;;;;;6.53;5.37;;;17.10;99.90;;;;;;933441;151;27316;-79
2022/10/14 07:37:32;;;;;;;6.20;5.60;;;17.10;99.90;;;;;;932889;151;27425;-79
2022/10/14 07:39:58;;;;;;;7.50;6.45;;;17.10;99.90;;;;;;936829;148;27284;-79
2022/10/14 07:42:25;;;;;;;5.55;5.03;;;17.10;99.90;;;;;;935791;151;27427;-79
2022/10/14 07:44:53;;;;;;;7.70;5.97;;;17.20;99.90;;;;;;934370;151;27388;-79
2022/10/14 07:47:18;;;;;;;9.15;5.40;;;17.20;99.90;;;;;;935484;148;27340;-79
2022/10/14 07:49:45;;;;;;;6.50;5.45;;;17.20;99.90;;;;;;936770;151;27381;-79
2022/10/14 07:52:11;;;;;;;6.90;6.30;;;17.30;99.90;;;;;;935379;151;27401;-79
2022/10/14 07:54:38;;;;;;;7.53;6.92;;;17.40;99.90;;;;;;935299;151;27287;-80
2022/10/14 07:57:04;;;;;;;7.97;7.17;;;17.40;99.90;;;;;;937408;150;27383;-79
2022/10/14 07:59:31;;;;;;;6.95;6.35;;;17.50;99.90;;;;;;935766;148;27336;-79
2022/10/14 08:01:58;;;;;;;6.10;5.22;;;17.60;99.90;;;;;;934625;151;27437;-79
2022/10/14 08:04:24;;;;;;;5.72;5.10;;;17.70;99.90;;;;;;938606;151;27307;-79
2022/10/14 08:06:51;;;;;;;6.25;5.28;;;17.80;99.90;;;;;;936430;149;27372;-79
2022/10/14 08:09:17;;;;;;;6.10;5.50;;;17.90;99.90;;;;;;936418;150;27714;-79
2022/10/14 08:11:44;;;;;;;6.65;5.83;;;17.90;99.90;;;;;;936921;151;27338;-79
2022/10/14 08:14:10;;;;;;;5.92;5.33;;;18.00;99.90;;;;;;934437;148;27290;-79
2022/10/14 08:16:37;;;;;;;5.97;5.47;;;18.00;99.90;;;;;;936336;149;27297;-79
2022/10/14 08:19:06;;;;;;;6.15;5.60;;;18.00;99.90;;;;;;934425;151;27385;-79
2022/10/14 08:21:33;;;;;;;6.42;4.95;;;18.10;99.90;;;;;;935426;151;27348;-79
2022/10/14 08:24:00;;;;;;;7.47;5.67;;;18.10;99.90;;;;;;935483;149;27343;-79
2022/10/14 08:26:26;;;;;;;5.80;5.30;;;18.20;99.90;;;;;;935079;148;27755;-79
2022/10/14 08:28:53;;;;;;;7.33;5.72;;;18.20;99.90;;;;;;934419;149;27343;-79
2022/10/14 08:31:19;;;;;;;6.83;6.22;;;18.30;99.90;;;;;;936568;150;27384;-79
2022/10/14 08:33:46;;;;;;;6.60;5.60;;;18.40;99.90;;;;;;934161;151;27470;-79
2022/10/14 08:36:12;;;;;;;5.95;5.45;;;18.40;99.90;;;;;;935271;151;27489;-79
2022/10/14 08:38:39;;;;;;;6.45;5.85;;;18.50;99.90;;;;;;937121;149;27447;-79
2022/10/14 08:41:11;;;;;;;7.95;6.78;;;18.60;99.90;;;;;;935032;151;27385;-80
2022/10/14 08:44:05;;;;;;;7.30;5.62;;;18.60;99.90;;;;;;934005;151;27432;-79
2022/10/14 08:46:43;;;;;;;6.70;6.00;;;18.70;99.90;;;;;;935511;149;27315;-79
2022/10/14 08:49:19;;;;;;;6.67;6.08;;;18.80;99.90;;;;;;934312;149;27370;-79
2022/10/14 08:51:45;;;;;;;6.70;6.10;;;18.80;99.90;;;;;;934062;151;27404;-79
2022/10/14 08:54:14;;;;;;;5.87;5.37;;;18.90;99.90;;;;;;935360;151;27405;-79
2022/10/14 08:56:38;;;;;;;7.37;6.15;;;19.00;99.90;;;;;;937356;151;27377;-79
2022/10/14 08:59:05;;;;;;;6.12;5.62;;;19.00;99.90;;;;;;935859;151;27350;-78
2022/10/14 09:01:32;;;;;;;7.15;6.35;;;19.10;99.90;;;;;;935804;149;27369;-79
2022/10/14 09:04:04;;;;;;;5.90;5.25;;;19.20;99.90;;;;;;935359;150;27264;-79
2022/10/14 09:06:33;;;;;;;7.30;5.72;;;19.20;99.90;;;;;;935588;149;27300;-79
2022/10/14 09:09:00;;;;;;;6.37;5.75;;;19.30;99.90;;;;;;935851;151;27385;-79
2022/10/14 09:11:27;;;;;;;7.20;5.75;;;19.40;99.90;;;;;;933024;151;27374;-79
2022/10/14 09:13:56;;;;;;;6.80;6.20;;;19.40;99.90;;;;;;935641;149;27334;-79
2022/10/14 09:16:23;;;;;;;9.08;6.10;;;19.50;99.90;;;;;;934964;149;27355;-78
2022/10/14 09:18:55;;;;;;;6.03;5.53;;;19.60;99.90;;;;;;933479;151;27283;-79
2022/10/14 09:21:24;;;;;;;6.05;5.55;;;19.60;99.90;;;;;;935938;151;27830;-79
2022/10/14 09:23:56;;;;;;;7.05;6.45;;;19.70;99.90;;;;;;934568;151;27315;-79
2022/10/14 09:26:23;;;;;;;6.78;6.17;;;19.70;99.90;;;;;;935881;151;27450;-79
2022/10/14 09:28:53;;;;;;;6.53;5.80;;;19.70;99.90;;;;;;936431;151;27727;-79
2022/10/14 09:31:16;;;;;;;6.33;5.72;;;19.70;99.90;;;;;;935038;151;27390;-79
2022/10/14 09:33:43;;;;;;;6.50;6.00;;;19.80;99.90;;;;;;934299;150;27858;-79
2022/10/14 09:36:16;;;;;;;6.28;5.67;;;19.80;99.90;;;;;;929891;149;27285;-79
2022/10/14 09:38:42;;;;;;;8.88;5.95;;;19.90;99.90;;;;;;931863;151;27316;-79
2022/10/14 09:41:08;;;;;;;7.60;6.00;;;19.90;99.90;;;;;;930098;152;27413;-79
2022/10/14 09:43:35;;;;;;;6.50;5.90;;;19.90;99.90;;;;;;930277;152;27339;-79
2022/10/14 09:46:09;;;;;;;5.95;5.35;;;19.90;99.90;;;;;;932054;152;27328;-79
2022/10/14 09:48:36;;;;;;;6.28;5.65;;;20.00;99.90;;;;;;933068;152;27423;-79
2022/10/14 09:51:01;;;;;;;7.05;5.60;;;20.00;99.90;;;;;;931225;152;27283;-79
2022/10/14 09:53:30;;;;;;;6.17;5.58;;;20.10;99.90;;;;;;931035;151;27340;-79
2022/10/14 09:55:57;;;;;;;6.00;5.40;;;20.20;99.90;;;;;;930373;152;27480;-79
2022/10/14 09:58:38;;;;;;;6.00;5.50;;;20.30;99.90;;;;;;929528;149;27308;-79
2022/10/14 10:01:05;;;;;;;6.25;5.58;;;20.30;99.90;;;;;;930673;150;27303;-79
2022/10/14 10:03:39;;;;;;;5.25;4.80;;;20.40;99.90;;;;;;929577;152;27413;-79
2022/10/14 10:06:04;;;;;;;5.17;4.78;;;20.40;99.90;;;;;;930478;149;27489;-79
2022/10/14 10:08:30;;;;;;;6.47;5.83;;;20.40;99.90;;;;;;929795;152;27378;-79
2022/10/14 10:11:03;;;;;;;5.03;4.55;;;20.40;99.90;;;;;;929880;150;27320;-79
2022/10/14 10:13:35;;;;;;;5.42;4.92;;;20.40;99.90;;;;;;932285;151;27341;-79
2022/10/14 10:16:01;;;;;;;5.50;5.00;;;20.40;99.90;;;;;;931019;149;27376;-79
2022/10/14 10:18:28;;;;;;;5.28;4.85;;;20.40;99.80;;;;;;931062;151;27333;-78
2022/10/14 10:21:06;;;;;;;6.55;4.72;;;20.40;99.70;;;;;;928708;152;27300;-79
2022/10/14 10:23:33;;;;;;;6.03;5.12;;;20.30;99.80;;;;;;932212;149;27663;-79
2022/10/14 10:26:24;;;;;;;6.30;4.90;;;20.30;99.90;;;;;;932150;149;27323;-80
2022/10/14 10:28:47;;;;;;;7.00;5.10;;;20.30;99.90;;;;;;930742;150;27360;-80
2022/10/14 10:31:29;;;;;;;5.35;4.85;;;20.30;99.90;;;;;;932633;149;27387;-79
2022/10/14 10:33:55;;;;;;;6.03;5.45;;;20.40;99.90;;;;;;931656;150;27337;-79
2022/10/14 10:36:31;;;;;;;5.37;4.60;;;20.40;99.90;;;;;;931174;150;27294;-80
2022/10/14 10:39:00;;;;;;;5.22;4.20;;;20.50;99.90;;;;;;935115;151;27421;-80
2022/10/14 10:41:27;;;;;;;5.15;4.75;;;20.60;99.90;;;;;;932588;150;27332;-80
2022/10/14 10:44:27;;;;;;;6.50;5.03;;;20.70;99.90;;;;;;933759;148;27352;-79
2022/10/14 10:47:09;;;;;;;4.60;4.20;;;20.80;99.90;;;;;;898811;156;27628;-79
2022/10/14 10:49:39;;;;;;;4.83;4.42;;;20.90;99.50;;;;;;930086;151;27444;-79
2022/10/14 10:52:27;;;;;;;4.65;4.25;;;21.00;99.00;;;;;;935292;151;27351;-79
2022/10/14 10:55:20;;;;;;;4.60;4.20;;;21.10;98.80;;;;;;935876;151;27320;-80
2022/10/14 10:57:52;;;;;;;4.10;3.80;;;21.10;98.40;;;;;;904381;151;27537;-80
2022/10/14 11:00:19;;;;;;;4.40;4.00;;;21.20;98.20;;;;;;936588;148;27433;-80
2022/10/14 11:02:46;;;;;;;4.20;3.80;;;21.20;98.10;;;;;;935560;151;27337;-80
2022/10/14 11:05:12;;;;;;;4.60;3.75;;;21.30;97.80;;;;;;937028;151;27338;-80
2022/10/14 11:13:31;;;;;;;4.50;4.10;;;21.50;98.20;;;;;;928983;151;27499;-79
2022/10/14 11:16:07;;;;;;;4.72;3.47;;;21.70;97.70;;;;;;935125;151;27257;-79
2022/10/14 11:18:46;;;;;;;5.83;3.85;;;21.80;97.30;;;;;;936970;151;27312;-79
2022/10/14 11:21:33;;;;;;;4.65;3.77;;;21.90;96.70;;;;;;935532;151;27365;-79
2022/10/14 11:24:05;;;;;;;5.45;3.65;;;22.00;96.30;;;;;;936405;148;27375;-79
2022/10/14 11:26:54;;;;;;;3.60;3.30;;;22.10;96.00;;;;;;933839;148;27353;-79
2022/10/14 11:29:29;;;;;;;3.08;2.77;;;22.10;95.70;;;;;;934894;151;27367;-79
2022/10/14 11:32:20;;;;;;;5.33;3.15;;;22.20;95.10;;;;;;934687;151;28957;-79
2022/10/14 11:35:16;;;;;;;3.70;2.98;;;22.20;94.40;;;;;;936116;148;27402;-79
2022/10/14 11:37:44;;;;;;;4.20;3.20;;;22.20;93.00;;;;;;935083;149;27333;-80
2022/10/14 11:40:16;;;;;;;2.75;2.33;;;22.10;92.20;;;;;;933123;149;27418;-80
2022/10/14 11:43:07;;;;;;;4.90;2.95;;;22.10;91.90;;;;;;937408;149;27363;-80
2022/10/14 11:45:43;;;;;;;3.58;3.20;;;22.00;91.90;;;;;;937195;149;27338;-80
2022/10/14 11:48:09;;;;;;;4.97;3.27;;;22.00;91.90;;;;;;935008;151;27509;-79
2022/10/14 11:50:36;;;;;;;3.15;2.80;;;21.90;91.80;;;;;;934005;150;27317;-80
2022/10/14 11:53:20;;;;;;;3.17;2.83;;;21.90;91.90;;;;;;936195;149;27396;-80
2022/10/14 11:55:50;;;;;;;6.00;3.70;;;21.80;91.80;;;;;;935613;151;27324;-79
2022/10/14 11:58:19;;;;;;;2.83;2.62;;;21.90;91.90;;;;;;932940;151;27305;-80
2022/10/14 12:01:17;;;;;;;3.90;2.85;;;21.80;91.80;;;;;;935471;151;27351;-79
2022/10/14 12:04:04;;;;;;;3.85;2.77;;;21.80;91.90;;;;;;934813;149;27916;-79
2022/10/14 12:06:36;;;;;;;2.65;2.45;;;21.80;92.00;;;;;;934647;148;27329;-79
2022/10/14 12:09:09;;;;;;;2.75;2.40;;;21.80;91.90;;;;;;934870;148;27264;-79
2022/10/14 12:11:35;;;;;;;2.42;2.22;;;21.70;91.80;;;;;;935279;149;27324;-80
2022/10/14 12:14:05;;;;;;;3.80;3.00;;;21.70;91.70;;;;;;934566;149;27311;-79
2022/10/14 12:16:31;;;;;;;2.62;2.42;;;21.70;91.40;;;;;;936148;151;28128;-79
2022/10/14 12:18:58;;;;;;;3.33;2.60;;;21.60;91.10;;;;;;935941;151;27792;-79
2022/10/14 12:21:45;;;;;;;2.37;2.17;;;21.60;91.00;;;;;;935093;151;27324;-79
2022/10/14 12:24:13;;;;;;;2.77;2.58;;;21.50;91.10;;;;;;933616;151;27461;-79
2022/10/14 12:26:41;;;;;;;4.15;3.12;;;21.50;91.40;;;;;;935227;148;27472;-79
2022/10/14 12:29:08;;;;;;;3.83;2.58;;;21.40;91.70;;;;;;934387;151;27296;-79
2022/10/14 12:31:35;;;;;;;4.85;3.00;;;21.40;91.80;;;;;;933430;151;27347;-79
2022/10/14 12:34:12;;;;;;;2.92;2.72;;;21.40;91.90;;;;;;934687;151;27320;-79
2022/10/14 12:36:37;;;;;;;2.70;2.50;;;21.30;91.90;;;;;;932761;149;27509;-79
2022/10/14 12:39:19;;;;;;;2.45;2.02;;;21.30;92.30;;;;;;931665;149;27983;-79
2022/10/14 12:41:46;;;;;;;2.75;2.00;;;21.20;92.20;;;;;;931093;149;27438;-79
2022/10/14 12:44:12;;;;;;;2.40;2.20;;;21.20;92.30;;;;;;929568;149;27319;-79
2022/10/14 12:46:42;;;;;;;3.42;2.50;;;21.10;92.20;;;;;;930565;151;27298;-79
2022/10/14 12:49:08;;;;;;;3.30;2.37;;;21.00;92.40;;;;;;931450;149;27401;-79
2022/10/14 12:51:35;;;;;;;3.52;3.15;;;20.90;92.70;;;;;;931070;151;27298;-79
2022/10/14 12:54:07;;;;;;;3.55;3.25;;;20.80;93.10;;;;;;931408;152;27368;-79
2022/10/14 12:56:39;;;;;;;3.47;2.37;;;20.70;93.40;;;;;;930941;150;27278;-79
2022/10/14 12:59:06;;;;;;;3.02;2.50;;;20.70;93.70;;;;;;930324;150;27396;-79
2022/10/14 13:01:33;;;;;;;2.65;2.42;;;20.60;93.80;;;;;;932110;151;27850;-79